Insider Trading activities of Northrop Grumman Corp /de/ insiders. , Part 2

Monthly summaries of insider trading activities (stock purchases, sales, and option exercises) reported by insiders of Northrop Grumman Corp /de/ since 2005 are illustrated in Table 1 and Table 2. Table 1 shows the monthly insider trading data of Northrop Grumman Corp /de/ since year 2005. (See page 1 of this report.) Table 2 shows the detailed insider transactions of Northrop Grumman Corp /de/ since 2005. The reporting company's ticker symbol is NOC. The reporting company's CIK number is 1133421.
The total value of stock buying since 2005 is $2,364,409.
The total value of stock sales since 2005 is $363,885,755.
The total value of stock option exercises since 2005 is $240,078,369.


 1   2   3 

Table 2. Detailed insider stock purchases, sales, and option exercises of Northrop Grumman Corp /de/ insiders (NOC) , Part 2
  Trade Date   Insider Name Trade Type     Shares       Price ($)   Value ($)
2015-02-13 Caylor Mark A (Corp VP & Pres ESS & CSO) Option Ex 2,137 .00 0
2015-02-13 Perry David T (CVP Chief Global Bus Dev Officer) Option Ex 2,834 .00 0
2015-02-13 Bedingfield Kenneth L (Corp VP, CFO) Option Ex 2,816 .00 0
2015-02-13 Ashworth Sid (Corp VP, Government Relations) Option Ex 18,833 .00 0
2015-02-13 Cheston Sheila C. (Corp. VP & General Counsel) Option Ex 23,541 .00 0
2015-02-13 Vice Thomas E (Corp VP & Pres Aerospace Sys) Option Ex 32,292 .00 0
2015-02-13 Flach Gloria A (Corp. VP & Pres Electronic Sys) Option Ex 15,633 .00 0
2015-02-13 Fraser Darryl M (Corp VP, Communications) Option Ex 12,273 .00 0
2015-02-13 Peppard Denise M. (Corp VP & Chf HR Ofcr) Option Ex 8,047 .00 0
2015-02-13 Bush Wesley G (Chairman, CEO and President) Option Ex 107,650 .00 0
2015-02-13 Palmer James F (Corp. VP & CFO) Option Ex 34,456 .00 0
2015-02-03 Bush Wesley G (Chairman, CEO and President) Sale 30,000 158.07 4,742,100
2014-12-09 Fraser Darryl M (Corp VP, Communications) Sale 12,349 145.38 1,795,297
2014-12-09 Fraser Darryl M (Corp VP, Communications) Option Ex 14,343 63.22 906,764
2014-11-18 Vice Thomas E (Corp VP & Pres Aerospace Sys) Sale 3,844 138.27 531,509
2014-11-18 Mills Linda A (Corp. VP, Operations) Sale 27,460 137.97 3,788,656
2014-11-18 Mills Linda A (Corp. VP, Operations) Option Ex 32,000 63.22 2,023,040
2014-11-12 Cheston Sheila C. (Corp. VP & General Counsel) Sale 7,847 136.09 1,067,898
2014-11-11 Ashworth Sid (Corp VP, Government Relations) Option Ex 5,469 .00 0
2014-11-11 Flach Gloria A (Corp. VP & Pres Electronic Sys) Sale 3,870 135.88 525,855
2014-11-10 Flach Gloria A (Corp. VP & Pres Electronic Sys) Option Ex 7,741 54.46 421,574
2014-11-07 Flach Gloria A (Corp. VP & Pres Electronic Sys) Sale 32,397 136.62 4,426,078
2014-11-07 Flach Gloria A (Corp. VP & Pres Electronic Sys) Option Ex 29,239 47.80 1,397,624
2014-11-05 Palmer James F (Corp. VP & CFO) Sale 15,130 138.01 2,088,091
2014-11-04 Peppard Denise M. (Corp VP & Chf HR Ofcr) Sale 17,456 138.57 2,418,877
2014-11-04 Peppard Denise M. (Corp VP & Chf HR Ofcr) Option Ex 14,748 54.98 810,845
2014-11-03 Bush Wesley G (Chairman, CEO and President) Sale 30,000 137.03 4,110,900
2014-10-31 Peppard Denise M. (Corp VP & Chf HR Ofcr) Option Ex 19,255 .00 0
2014-10-30 Ashworth Sid (Corp VP, Government Relations) Sale 32,400 136.89 4,435,236
2014-10-30 Ashworth Sid (Corp VP, Government Relations) Option Ex 38,094 58.58 2,231,546
2014-08-01 Bush Wesley G (Chairman, CEO and President) Sale 30,000 123.96 3,718,800
2014-06-10 Caylor Mark A (Corp VP & Pres ESS) Option Ex 1,750 47.99 83,982
2014-05-30 Fraser Darryl M (Corp VP, Communications) Sale 15,676 120.00 1,881,120
2014-05-30 Fraser Darryl M (Corp VP, Communications) Option Ex 14,343 63.22 906,764
2014-05-23 Jones Christopher T (Corp VP & Pres Tech Svcs) Sale 170 119.72 20,352
2014-05-01 Bush Wesley G (Chairman, CEO and President) Sale 30,000 121.10 3,633,060
2014-03-10 Sharer Kevin W (Director) Sale 6,562 122.63 804,724
2014-03-10 Sharer Kevin W (Director) Option Ex 6,562 48.15 315,960
2014-03-10 Palmer James F (Corp. VP & CFO) Sale 12,013 123.20 1,479,989
2014-03-07 Mills Linda A (Corp. VP, Operations) Sale 54,807 124.52 6,824,458
2014-03-07 Mills Linda A (Corp. VP, Operations) Option Ex 64,204 54.46 3,496,549
2014-03-06 Perry David T (CVP Chief Global Bus Dev Officer) Sale 5,399 123.66 667,640
2014-03-05 Mills Linda A (Corp. VP, Operations) Sale 59,736 123.98 7,405,949
2014-03-05 Mills Linda A (Corp. VP, Operations) Option Ex 70,000 54.46 3,812,200
2014-03-03 Cheston Sheila C. (Corp. VP & General Counsel) Sale 2,632 120.00 315,840
2014-02-27 Peppard Denise M. (Corp VP & Chf HR Ofcr) Sale 4,548 119.12 541,744
2014-02-24 Hardesty Michael A (Corp VP, Controller & CAO) Sale 3,620 122.83 444,648
2014-02-24 Flach Gloria A (Corp. VP & Pres Electronic Sys) Sale 5,997 120.89 724,947
2014-02-24 Palmer James F (Corp. VP & CFO) Sale 20,415 122.63 2,503,450
2014-02-21 Cheston Sheila C. (Corp. VP & General Counsel) Sale 8,247 119.76 987,644
2014-02-21 Palmer James F (Corp. VP & CFO) Sale 2,984 119.69 357,163
2014-02-21 Palmer James F (Corp. VP & CFO) Option Ex 141,533 54.46 7,707,887
2014-02-20 Palmer James F (Corp. VP & CFO) Option Ex 23,905 63.22 1,511,274
2014-02-19 Hardesty Michael A (Corp VP, Controller & CAO) Option Ex 12,134 .00 0
2014-02-19 Warden Kathy J (Corp VP & Pres Info Syst) Option Ex 12,064 .00 0
2014-02-19 Jones Christopher T (Corp VP & Pres Tech Svcs) Option Ex 10,010 .00 0
2014-02-19 Caylor Mark A (Corp VP & Pres ESS) Option Ex 8,656 .00 0
2014-02-19 Perry David T (CVP Chief Global Bus Dev Officer) Option Ex 19,820 .00 0
2014-02-19 Ashworth Sid (Corp VP, Government Relations) Option Ex 17,149 .00 0
2014-02-19 Cheston Sheila C. (Corp. VP & General Counsel) Option Ex 4,510 63.22 285,122
2014-02-19 Vice Thomas E (Corp VP & Pres Aerospace Sys) Option Ex 16,076 .00 0
2014-02-19 Flach Gloria A (Corp. VP & Pres Electronic Sys) Option Ex 12,861 .00 0
2014-02-19 Fraser Darryl M (Corp VP, Communications) Option Ex 10,718 .00 0
2014-02-19 Mills Linda A (Corp. VP, Operations) Option Ex 24,117 .00 0
2014-02-19 Peppard Denise M. (Corp VP & Chf HR Ofcr) Option Ex 16,531 .00 0
2014-02-19 Fazio Vic (Director) Sale 3,281 119.25 391,249
2014-02-19 Fazio Vic (Director) Option Ex 3,281 50.55 165,854
2014-02-19 Bush Wesley G (Chairman, CEO and President) Option Ex 107,189 .00 0
2014-02-19 Palmer James F (Corp. VP & CFO) Option Ex 26,796 .00 0
2014-02-18 Cheston Sheila C. (Corp. VP & General Counsel) Sale 14,615 120.11 1,755,451
2014-02-18 Cheston Sheila C. (Corp. VP & General Counsel) Option Ex 14,615 63.22 923,960
2014-02-18 Bush Wesley G (Chairman, CEO and President) Option Ex 95,621 63.22 6,045,159
2014-02-14 Palmer James F (Corp. VP & CFO) Option Ex 45,938 .00 0
2014-02-12 Mills Linda A (Corp. VP, Operations) Sale 46,869 118.01 5,531,104
2014-02-12 Mills Linda A (Corp. VP, Operations) Option Ex 46,869 41.14 1,928,190
2014-02-12 Peters Aulana L (Director) Sale 281 117.22 32,938
2014-02-12 Peters Aulana L (Director) Option Ex 281 50.55 14,204
2014-02-11 Bush Wesley G (Chairman, CEO and President) Sale 30,000 115.92 3,477,480
2014-02-11 Palmer James F (Corp. VP & CFO) Sale 21,190 115.93 2,456,535
2013-12-10 Ashworth Sid (Corp VP, Government Relations) Sale 35,161 110.04 3,869,257
2013-12-10 Ashworth Sid (Corp VP, Government Relations) Option Ex 40,000 58.58 2,343,200
2013-12-03 Flach Gloria A (Corp. VP & Pres Electronic Sys) Sale 16,246 112.14 1,821,761
2013-12-03 Flach Gloria A (Corp. VP & Pres Electronic Sys) Option Ex 4,156 48.55 201,753
2013-12-02 Vice Thomas E (Corp VP & Pres Aerospace Sys) Sale 40,239 112.45 4,524,795
2013-12-02 Vice Thomas E (Corp VP & Pres Aerospace Sys) Option Ex 42,568 58.55 2,492,143
2013-11-14 Cheston Sheila C. (Corp. VP & General Counsel) Sale 25,764 110.00 2,834,040
2013-11-14 Cheston Sheila C. (Corp. VP & General Counsel) Option Ex 29,158 58.58 1,708,075
2013-11-13 Palmer James F (Corp. VP & CFO) Sale 10,310 109.06 1,124,449
2013-11-12 Bush Wesley G (Chairman, CEO and President) Sale 30,000 109.18 3,275,370
2013-11-07 Peppard Denise M. (Corp VP & Chf HR Ofcr) Sale 14,850 108.83 1,616,155
2013-11-07 Peppard Denise M. (Corp VP & Chf HR Ofcr) Option Ex 14,747 54.98 810,790
2013-11-01 Fraser Darryl M (Corp VP, Communications) Sale 7,200 108.71 782,683
2013-11-01 Mills Linda A (Corp. VP, Operations) Sale 48,836 108.14 5,281,125
2013-11-01 Mills Linda A (Corp. VP, Operations) Option Ex 48,836 73.90 3,608,980
2013-11-01 Peppard Denise M. (Corp VP & Chf HR Ofcr) Option Ex 7,702 .00 0
2013-10-31 Fraser Darryl M (Corp VP, Communications) Sale 52,264 107.43 5,614,669
2013-10-31 Fraser Darryl M (Corp VP, Communications) Option Ex 59,664 54.46 3,249,301
2013-10-28 Peters Aulana L (Director) Sale 3,000 108.19 324,585
2013-10-28 Peters Aulana L (Director) Option Ex 3,000 50.55 151,650
2013-10-25 Hernandez William H (Director) Buy 1,000 107.28 107,280
2013-09-06 Palmer James F (Corp. VP & CFO) Option Ex 91,560 65.36 5,984,361
2013-08-14 Palmer James F (Corp. VP & CFO) Option Ex 190,243 54.46 10,360,633
2013-08-13 Caylor Mark A (Corp VP & Pres ESS) Option Ex 1,312 43.08 56,520
2013-08-02 Bush Wesley G (Chairman, CEO and President) Sale 120,000 94.94 11,392,320
2013-06-07 Palmer James F (Corp. VP & CFO) Option Ex 89,524 73.90 6,615,823
2013-06-06 Cheston Sheila C. (Corp. VP & General Counsel) Sale 45,177 81.59 3,686,217
2013-06-06 Cheston Sheila C. (Corp. VP & General Counsel) Option Ex 48,282 60.90 2,940,373
2013-06-05 Bush Wesley G (Chairman, CEO and President) Option Ex 411,778 64.18 26,427,912
2013-06-04 Fraser Darryl M (Corp VP, Communications) Sale 28,946 82.77 2,395,947
2013-06-04 Fraser Darryl M (Corp VP, Communications) Option Ex 28,946 57.52 1,664,973
2013-05-17 Vice Thomas E (Corp VP & Pres Aerospace Sys) Sale 9,163 81.72 748,763
2013-05-07 Peppard Denise M. (Corp VP & Chf HR Ofcr) Sale 15,854 77.11 1,222,501
2013-05-07 Peppard Denise M. (Corp VP & Chf HR Ofcr) Option Ex 14,747 54.98 810,790
2013-05-02 Perry David T (CVP Chief Global Bus Dev Officer) Sale 5,939 75.65 449,285
2013-05-01 Mills Linda A (Corp. VP, Operations) Sale 45,000 76.26 3,431,700
2013-05-01 Mills Linda A (Corp. VP, Operations) Option Ex 45,000 41.14 1,851,300
2013-04-30 Ashworth Sid (Corp VP, Government Relations) Sale 9,680 75.00 726,000
2013-03-06 Hardesty Michael A (Corp VP, Controller & CAO) Sale 3,500 64.96 227,359
2013-02-20 Hardesty Michael A (Corp VP, Controller & CAO) Option Ex 15,812 .00 0
2013-02-20 Warden Kathy J (Corp VP & Pres Info Syst) Option Ex 14,736 .00 0
2013-02-20 Jones Christopher T (Corp VP & Pres Tech Svcs) Option Ex 2,340 .00 0
2013-02-20 Perry David T (CVP Chief Global Bus Dev Officer) Option Ex 18,904 .00 0
2013-02-20 Ashworth Sid (Corp VP, Government Relations) Option Ex 29,574 .00 0
2013-02-20 Cheston Sheila C. (Corp. VP & General Counsel) Option Ex 33,118 .00 0
2013-02-20 Vice Thomas E (Corp VP & Pres Aerospace Sys) Option Ex 38,320 .00 0
2013-02-20 Flach Gloria A (Corp. VP & Pres Electronic Sys) Option Ex 22,574 .00 0
2013-02-20 Fraser Darryl M (Corp VP, Communications) Option Ex 22,574 .00 0
2013-02-20 Mills Linda A (Corp. VP, Operations) Option Ex 50,750 .00 0
2013-02-20 Bush Wesley G (Chairman, CEO and President) Option Ex 191,889 .00 0
2013-02-20 Palmer James F (Corp. VP & CFO) Option Ex 55,299 .00 0
2012-12-10 Fraser Darryl M (Corp VP, Communications) Sale 20,000 68.01 1,360,200
2012-12-10 Fraser Darryl M (Corp VP, Communications) Option Ex 20,000 41.14 822,800
2012-12-07 Cheston Sheila C. (Corp. VP & General Counsel) Sale 4,991 67.48 336,792
2012-11-12 Perry David T (CVP Chief Global Bus Dev Officer) Sale 3,000 65.19 195,570
2012-11-09 Ashworth Sid (Corp VP, Government Relations) Option Ex 5,468 .00 0
2012-11-09 Cheston Sheila C. (Corp. VP & General Counsel) Option Ex 18,048 .00 0
2012-11-08 Schoewe Thomas M (Director) Buy 1,500 66.49 99,734
2012-11-07 Flach Gloria A (CORP VP. PRES, ENT,SH SVCS) Sale 6,320 67.99 429,696
2012-11-01 Peppard Denise M. (Corp VP & Chf HR Ofcr) Option Ex 7,701 .00 0
2012-08-29 Cheston Sheila C. (Corp. VP & General Counsel) Sale 5,266 67.30 354,401
2012-08-29 Ervin Gary W. (Corp VP & Pres Aerospace Sys) Sale 10,154 67.25 682,856
2012-08-24 Cheston Sheila C. (Corp. VP & General Counsel) Sale 46,532 67.30 3,131,603
2012-08-24 Cheston Sheila C. (Corp. VP & General Counsel) Option Ex 48,280 60.90 2,940,252
2012-08-21 Bush Wesley G (Chairman, CEO and President) Option Ex 457,254 54.46 24,902,052
2012-08-20 Palmer James F (Corp. VP & CFO) Option Ex 97,416 54.46 5,305,275
2012-08-17 Pitts James F (Corp VP & Pres Electronic Sys) Sale 19,000 69.12 1,313,280
2012-08-15 Ervin Gary W. (Corp VP & Pres Aerospace Sys) Sale 13,125 68.24 895,649
2012-08-15 Ervin Gary W. (Corp VP & Pres Aerospace Sys) Option Ex 13,125 47.99 629,868
2012-08-14 Vice Thomas E (Corp VP & Pres Tech Servs) Option Ex 1,597 53.87 86,030
2012-08-10 Perry David T (CVP Chief Global Bus Dev Officer) Sale 2,657 68.18 181,154
 1   2   3 

Insider trading activities including stock purchases, stock sales, and option exercises of NOC listed in the above tables cannot be completely guaranteed as to their accuracy. For more insider trading information of Northrop Grumman Corp /de/ (symbol NOC, CIK number 1133421) see the Securities and Exchange Commission (SEC) website.